createdAt,value
2019-03-05T00:00:47.514Z,77.90
2019-03-05T00:03:17.816Z,77.60
2019-03-05T00:05:47.720Z,77.20
2019-03-05T00:08:18.073Z,77.40
2019-03-05T00:10:47.343Z,77.50
2019-03-05T00:13:16.612Z,77.10
2019-03-05T00:15:47.093Z,77.20
2019-03-05T00:18:16.356Z,77.20
2019-03-05T00:20:45.688Z,77.00
2019-03-05T00:23:18.048Z,76.80
2019-03-05T00:25:47.308Z,76.50
2019-03-05T00:28:22.333Z,76.70
2019-03-05T00:31:05.949Z,76.60
2019-03-05T00:33:56.037Z,76.70
2019-03-05T00:36:37.750Z,76.80
2019-03-05T00:39:29.796Z,76.80
2019-03-05T00:42:10.636Z,76.70
2019-03-05T00:44:48.965Z,76.70
2019-03-05T00:47:30.425Z,76.80
2019-03-05T00:50:20.892Z,76.50
2019-03-05T00:53:02.109Z,76.60
2019-03-05T00:55:40.248Z,76.80
2019-03-05T00:58:18.555Z,76.70
2019-03-05T01:01:05.868Z,76.40
2019-03-05T01:03:49.501Z,76.30
2019-03-05T01:06:21.895Z,76.40
2019-03-05T01:08:51.895Z,76.00
2019-03-05T01:11:22.370Z,76.20
2019-03-05T01:13:51.709Z,75.20
2019-03-05T01:16:22.876Z,75.20
2019-03-05T01:18:52.148Z,74.60
2019-03-05T01:21:21.407Z,74.60
2019-03-05T01:23:50.676Z,73.40
2019-03-05T01:26:20.165Z,72.60
2019-03-05T01:28:49.451Z,72.90
2019-03-05T01:31:37.573Z,72.70
2019-03-05T01:34:08.480Z,72.90
2019-03-05T01:36:51.238Z,72.60
2019-03-05T01:39:32.382Z,73.30
2019-03-05T01:42:01.635Z,73.90
2019-03-05T01:44:30.905Z,74.40
2019-03-05T01:47:00.177Z,74.90
2019-03-05T01:49:29.534Z,75.60
2019-03-05T01:51:58.815Z,76.10
2019-03-05T01:54:28.117Z,76.80
2019-03-05T01:56:57.380Z,77.70
2019-03-05T01:59:26.645Z,78.50
2019-03-05T02:01:55.907Z,78.70
2019-03-05T02:04:25.192Z,79.50
2019-03-05T02:06:54.439Z,80.40
2019-03-05T02:09:23.721Z,80.60
2019-03-05T02:11:52.987Z,81.30
2019-03-05T02:14:22.252Z,81.50
2019-03-05T02:16:51.516Z,81.70
2019-03-05T02:19:40.309Z,82.30
2019-03-05T02:22:15.737Z,82.10
2019-03-05T02:24:56.845Z,82.30
2019-03-05T02:27:35.201Z,82.40
2019-03-05T02:30:19.641Z,82.50
2019-03-05T02:33:03.829Z,82.50
2019-03-05T02:35:57.039Z,82.70
2019-03-05T02:38:34.965Z,82.90
2019-03-05T02:41:22.071Z,83.20
2019-03-05T02:44:18.617Z,83.50
2019-03-05T02:47:02.769Z,83.50
2019-03-05T02:49:56.485Z,83.60
2019-03-05T02:52:33.939Z,83.70
2019-03-05T02:55:14.788Z,83.90
2019-03-05T02:57:42.980Z,83.80
2019-03-05T03:00:13.894Z,83.70
2019-03-05T03:02:44.803Z,83.60
2019-03-05T03:05:20.630Z,83.60
2019-03-05T03:07:49.911Z,83.40
2019-03-05T03:10:21.022Z,83.30
2019-03-05T03:12:50.387Z,83.20
2019-03-05T03:15:19.931Z,83.10
2019-03-05T03:17:49.556Z,83.30
2019-03-05T03:20:19.058Z,83.30
2019-03-05T03:22:48.329Z,83.30
2019-03-05T03:25:18.123Z,83.20
2019-03-05T03:27:47.472Z,83.10
2019-03-05T03:30:18.706Z,83.00
2019-03-05T03:32:48.029Z,83.10
2019-03-05T03:35:17.462Z,83.00
2019-03-05T03:37:46.740Z,83.10
2019-03-05T03:40:17.945Z,83.00
2019-03-05T03:42:47.239Z,82.80
2019-03-05T03:45:18.439Z,82.90
2019-03-05T03:47:47.700Z,82.60
2019-03-05T03:50:16.979Z,82.50
2019-03-05T03:52:46.263Z,82.50
2019-03-05T03:55:16.632Z,82.70
2019-03-05T03:57:45.882Z,82.60
2019-03-05T04:00:20.325Z,84.30
2019-03-05T04:02:49.931Z,85.80
2019-03-05T04:05:19.264Z,86.60
2019-03-05T04:07:48.525Z,87.50
2019-03-05T04:10:18.039Z,88.00
2019-03-05T04:12:47.298Z,88.10
2019-03-05T04:15:18.405Z,88.70
2019-03-05T04:17:47.671Z,89.00
2019-03-05T04:20:28.319Z,89.90
2019-03-05T04:22:57.600Z,89.60
2019-03-05T04:25:26.869Z,89.80
2019-03-05T04:27:56.137Z,90.00
2019-03-05T04:30:25.399Z,90.00
2019-03-05T04:32:54.662Z,90.10
2019-03-05T04:35:23.928Z,90.10
2019-03-05T04:37:53.196Z,90.10
2019-03-05T04:40:22.452Z,90.20
2019-03-05T04:42:51.717Z,90.30
2019-03-05T04:45:37.228Z,90.30
2019-03-05T04:48:06.485Z,90.30
2019-03-05T04:50:37.401Z,90.30
2019-03-05T04:53:06.652Z,90.30
2019-03-05T04:55:35.935Z,90.30
2019-03-05T04:58:05.202Z,90.20
2019-03-05T05:00:34.469Z,90.20
2019-03-05T05:03:04.006Z,90.00
2019-03-05T05:05:33.284Z,89.70
2019-03-05T05:08:02.544Z,89.60
2019-03-05T05:10:31.827Z,89.20
2019-03-05T05:13:01.095Z,88.90
2019-03-05T05:15:32.001Z,88.70
2019-03-05T05:18:01.696Z,88.20
2019-03-05T05:20:31.150Z,88.00
2019-03-05T05:23:00.401Z,87.60
2019-03-05T05:25:29.666Z,87.60
2019-03-05T05:27:58.990Z,87.80
2019-03-05T05:30:35.366Z,88.10
2019-03-05T05:33:05.876Z,88.40
2019-03-05T05:35:35.281Z,88.80
2019-03-05T05:38:04.681Z,89.80
2019-03-05T05:40:45.247Z,90.00
2019-03-05T05:43:17.208Z,90.00
2019-03-05T05:45:50.846Z,89.80
2019-03-05T05:48:20.180Z,89.80
2019-03-05T05:50:49.449Z,89.60
2019-03-05T05:53:18.740Z,89.90
2019-03-05T05:55:48.021Z,90.00
2019-03-05T05:58:18.109Z,90.10
2019-03-05T06:00:51.436Z,90.10
2019-03-05T06:03:20.779Z,90.20
2019-03-05T06:05:50.095Z,90.30
2019-03-05T06:08:20.432Z,90.20
2019-03-05T06:10:52.449Z,90.30
2019-03-05T06:13:20.678Z,90.30
2019-03-05T06:15:49.956Z,90.40
2019-03-05T06:18:19.229Z,90.50
2019-03-05T06:20:48.497Z,90.50
2019-03-05T06:23:17.763Z,90.70
2019-03-05T06:25:47.028Z,90.80
2019-03-05T06:28:16.298Z,90.90
2019-03-05T06:30:45.571Z,91.20
2019-03-05T06:33:14.836Z,91.60
2019-03-05T06:35:44.095Z,91.50
2019-03-05T06:38:13.357Z,91.80
2019-03-05T06:40:42.613Z,92.00
2019-03-05T06:43:11.890Z,91.80
2019-03-05T06:45:41.152Z,92.00
2019-03-05T06:48:10.421Z,92.20
2019-03-05T06:50:39.690Z,92.30
2019-03-05T06:53:08.956Z,92.40
2019-03-05T06:55:38.220Z,92.40
2019-03-05T06:58:07.484Z,92.50
2019-03-05T07:00:40.556Z,92.50
2019-03-05T07:03:10.792Z,92.40
2019-03-05T07:06:16.444Z,92.60
2019-03-05T07:08:51.168Z,92.60
2019-03-05T07:11:41.556Z,92.70
2019-03-05T07:14:28.782Z,92.70
2019-03-05T07:17:01.130Z,92.70
2019-03-05T07:19:36.511Z,92.80
2019-03-05T07:22:12.934Z,92.90
2019-03-05T07:24:46.092Z,92.90
2019-03-05T07:27:24.353Z,93.00
2019-03-05T07:29:55.268Z,93.20
2019-03-05T07:32:24.530Z,93.10
2019-03-05T07:34:53.801Z,93.20
2019-03-05T07:37:23.063Z,93.30
2019-03-05T07:39:53.377Z,93.30
2019-03-05T07:42:22.632Z,93.30
2019-03-05T07:44:51.914Z,93.40
2019-03-05T07:47:21.175Z,93.50
2019-03-05T07:49:50.450Z,93.50
2019-03-05T07:52:19.712Z,93.50
2019-03-05T07:54:48.976Z,93.50
2019-03-05T07:57:18.252Z,93.50
2019-03-05T07:59:47.516Z,93.60
2019-03-05T08:02:16.788Z,93.50
2019-03-05T08:04:46.065Z,94.00
2019-03-05T08:07:15.325Z,93.70
2019-03-05T08:09:44.589Z,93.60
2019-03-05T08:12:16.922Z,93.60
2019-03-05T08:14:55.247Z,93.60
2019-03-05T08:17:25.494Z,93.60
2019-03-05T08:19:54.768Z,93.60
2019-03-05T08:22:24.025Z,93.60
2019-03-05T08:24:53.300Z,93.50
2019-03-05T08:27:22.566Z,93.50
2019-03-05T08:29:51.842Z,93.50
2019-03-05T08:32:21.105Z,93.50
2019-03-05T08:34:50.364Z,93.40
2019-03-05T08:37:19.635Z,93.40
2019-03-05T08:39:48.902Z,93.40
2019-03-05T08:42:18.170Z,93.50
2019-03-05T08:44:50.610Z,93.40
2019-03-05T08:47:18.391Z,93.40
2019-03-05T08:49:47.647Z,93.40
2019-03-05T08:52:16.929Z,93.30
2019-03-05T08:54:46.188Z,93.30
2019-03-05T08:57:15.449Z,93.40
2019-03-05T08:59:44.789Z,93.40
2019-03-05T09:02:14.062Z,93.50
2019-03-05T09:04:43.324Z,93.40
2019-03-05T09:07:12.906Z,93.40
2019-03-05T09:09:42.165Z,93.50
2019-03-05T09:12:11.604Z,93.40
2019-03-05T09:14:40.856Z,93.40
2019-03-05T09:17:10.200Z,93.40
2019-03-05T09:19:39.470Z,93.40
2019-03-05T09:22:08.736Z,93.40
2019-03-05T09:24:38.031Z,93.40
2019-03-05T09:27:07.307Z,93.50
2019-03-05T09:29:36.570Z,93.30
2019-03-05T09:32:05.905Z,93.20
2019-03-05T09:34:35.168Z,93.00
2019-03-05T09:37:05.544Z,92.70
2019-03-05T09:39:34.811Z,92.40
2019-03-05T09:42:04.154Z,92.30
2019-03-05T09:44:33.419Z,92.30
2019-03-05T09:47:02.715Z,92.20
2019-03-05T09:49:31.953Z,92.20
2019-03-05T09:52:01.223Z,92.30
2019-03-05T09:54:30.488Z,92.00
2019-03-05T09:57:01.221Z,91.60
2019-03-05T09:59:30.485Z,91.60
2019-03-05T10:01:59.768Z,91.60
2019-03-05T10:04:29.086Z,91.50
2019-03-05T10:06:58.359Z,91.40
2019-03-05T10:09:27.617Z,91.30
2019-03-05T10:11:57.077Z,91.20
2019-03-05T10:14:26.433Z,91.00
2019-03-05T10:16:55.689Z,90.80
2019-03-05T10:19:24.960Z,90.90
2019-03-05T10:21:54.222Z,90.70
2019-03-05T10:24:23.484Z,90.50
2019-03-05T10:26:52.740Z,90.60
2019-03-05T10:29:22.015Z,90.40
2019-03-05T10:31:51.268Z,90.40
2019-03-05T10:34:20.604Z,90.40
2019-03-05T10:36:49.869Z,90.20
2019-03-05T10:39:30.042Z,90.50
2019-03-05T10:41:53.017Z,89.60
2019-03-05T10:44:22.287Z,89.60
2019-03-05T10:46:51.817Z,90.00
2019-03-05T10:49:21.460Z,90.00
2019-03-05T10:51:50.716Z,90.10
2019-03-05T10:54:20.049Z,90.60
2019-03-05T10:56:49.315Z,90.20
2019-03-05T10:59:18.579Z,89.70
2019-03-05T11:01:48.204Z,89.40
2019-03-05T11:04:17.472Z,89.70
2019-03-05T11:06:46.746Z,89.80
2019-03-05T11:09:18.757Z,89.50
2019-03-05T11:11:48.031Z,88.60
2019-03-05T11:14:17.368Z,88.60
2019-03-05T11:16:49.885Z,87.00
2019-03-05T11:19:18.593Z,86.30
2019-03-05T11:21:47.848Z,86.20
2019-03-05T11:24:17.194Z,87.00
2019-03-05T11:26:46.452Z,87.10
2019-03-05T11:29:15.716Z,87.40
2019-03-05T11:31:44.988Z,87.00
2019-03-05T11:34:14.261Z,87.00
2019-03-05T11:36:43.521Z,86.20
2019-03-05T11:39:13.149Z,85.60
2019-03-05T11:41:42.400Z,85.20
2019-03-05T11:44:11.804Z,85.20
2019-03-05T11:46:41.077Z,84.00
2019-03-05T11:49:10.337Z,84.60
2019-03-05T11:51:39.601Z,84.00
2019-03-05T11:54:08.876Z,84.70
2019-03-05T11:56:38.134Z,84.30
2019-03-05T11:59:07.416Z,83.70
2019-03-05T12:01:36.740Z,83.30
2019-03-05T12:04:06.341Z,82.40
2019-03-05T12:06:35.607Z,80.60
2019-03-05T12:09:06.931Z,79.60
2019-03-05T12:11:36.364Z,78.80
2019-03-05T12:14:05.629Z,78.90
2019-03-05T12:16:34.904Z,78.80
2019-03-05T12:19:04.164Z,79.10
2019-03-05T12:21:33.435Z,79.20
2019-03-05T12:24:02.701Z,79.30
2019-03-05T12:26:32.944Z,79.90
2019-03-05T12:29:02.204Z,79.00
2019-03-05T12:31:31.481Z,78.00
2019-03-05T12:34:00.749Z,78.70
2019-03-05T12:36:30.024Z,79.00
2019-03-05T12:38:59.304Z,79.50
2019-03-05T12:41:28.757Z,80.40
2019-03-05T12:43:58.017Z,80.20
2019-03-05T12:46:28.904Z,80.50
2019-03-05T12:48:58.164Z,81.10
2019-03-05T12:51:27.435Z,81.90
2019-03-05T12:53:56.698Z,82.80
2019-03-05T12:56:25.975Z,85.20
2019-03-05T12:58:55.237Z,87.70
2019-03-05T13:01:24.510Z,89.30
2019-03-05T13:03:53.812Z,90.20
2019-03-05T13:06:23.111Z,91.30
2019-03-05T13:08:52.369Z,91.80
2019-03-05T13:11:21.645Z,92.40
2019-03-05T13:13:52.773Z,92.60
2019-03-05T13:16:21.897Z,92.70
2019-03-05T13:18:51.156Z,93.20
2019-03-05T13:21:20.424Z,92.90
2019-03-05T13:23:51.583Z,93.60
2019-03-05T13:26:20.660Z,94.10
2019-03-05T13:28:49.931Z,92.10
2019-03-05T13:31:19.200Z,91.10
2019-03-05T13:33:48.465Z,89.50
2019-03-05T13:36:17.745Z,84.90
2019-03-05T13:38:47.014Z,79.80
2019-03-05T13:41:16.850Z,78.20
2019-03-05T13:43:46.327Z,74.00
2019-03-05T13:46:15.677Z,74.00
2019-03-05T13:48:59.765Z,73.60
2019-03-05T13:51:50.088Z,67.90
2019-03-05T13:54:37.214Z,65.50
2019-03-05T13:57:21.214Z,67.90
2019-03-05T13:59:50.460Z,69.70
2019-03-05T14:02:22.951Z,73.10
2019-03-05T14:05:06.712Z,73.40
2019-03-05T14:08:04.934Z,75.30
2019-03-05T14:10:34.203Z,77.00
2019-03-05T14:13:03.664Z,78.70
2019-03-05T14:15:34.117Z,80.00
2019-03-05T14:18:03.482Z,80.00
2019-03-05T14:20:34.987Z,78.10
2019-03-05T14:23:03.738Z,77.70
2019-03-05T14:25:33.042Z,75.20
2019-03-05T14:28:02.368Z,73.80
2019-03-05T14:30:31.701Z,71.70
2019-03-05T14:33:01.009Z,65.60
2019-03-05T14:35:30.467Z,60.70
2019-03-05T14:37:59.796Z,58.30
2019-03-05T14:40:30.053Z,58.30
2019-03-05T14:42:59.627Z,57.40
2019-03-05T14:45:30.732Z,55.50
2019-03-05T14:48:00.339Z,54.50
2019-03-05T14:50:29.658Z,56.70
2019-03-05T14:52:58.941Z,56.80
2019-03-05T14:55:28.267Z,53.60
2019-03-05T14:57:57.564Z,52.20
2019-03-05T15:00:26.823Z,51.90
2019-03-05T15:02:56.088Z,50.60
2019-03-05T15:05:26.442Z,51.80
2019-03-05T15:07:55.684Z,47.20
2019-03-05T15:10:25.074Z,45.50
2019-03-05T15:12:54.489Z,48.10
2019-03-05T15:15:31.484Z,49.60
2019-03-05T15:18:00.797Z,51.90
2019-03-05T15:20:31.192Z,52.80
2019-03-05T15:23:00.477Z,53.20
2019-03-05T15:25:29.853Z,51.30
2019-03-05T15:27:59.198Z,51.40
2019-03-05T15:30:29.082Z,51.30
2019-03-05T15:32:58.702Z,51.30
2019-03-05T15:35:29.112Z,51.20
2019-03-05T15:37:58.344Z,50.90
2019-03-05T15:40:27.694Z,51.40
2019-03-05T15:42:56.985Z,52.70
2019-03-05T15:45:26.281Z,52.70
2019-03-05T15:47:55.587Z,53.70
2019-03-05T15:50:26.618Z,53.90
2019-03-05T15:52:56.018Z,54.90
2019-03-05T15:55:25.934Z,55.20
2019-03-05T15:57:55.204Z,55.80
2019-03-05T16:00:30.552Z,56.40
2019-03-05T16:03:01.262Z,56.40
2019-03-05T16:05:31.898Z,56.60
2019-03-05T16:08:01.547Z,56.80
2019-03-05T16:10:31.996Z,57.30
2019-03-05T16:13:01.356Z,57.40
2019-03-05T16:15:30.806Z,58.10
2019-03-05T16:18:01.299Z,58.50
2019-03-05T16:20:31.104Z,58.80
2019-03-05T16:23:00.382Z,59.40
2019-03-05T16:25:29.649Z,59.50
2019-03-05T16:28:02.358Z,59.90
2019-03-05T16:30:39.009Z,60.20
2019-03-05T16:33:16.144Z,61.00
2019-03-05T16:35:47.056Z,61.60
2019-03-05T16:38:24.484Z,62.30
2019-03-05T16:40:55.416Z,62.30
2019-03-05T16:43:26.322Z,62.70
2019-03-05T16:46:00.226Z,62.90
2019-03-05T16:48:31.136Z,63.00
2019-03-05T16:51:02.052Z,63.30
2019-03-05T16:53:38.656Z,63.50
2019-03-05T16:56:12.533Z,63.90
2019-03-05T16:58:52.140Z,64.00
2019-03-05T17:01:25.760Z,64.10
2019-03-05T17:04:05.422Z,65.40
2019-03-05T17:06:52.628Z,65.00
2019-03-05T17:09:26.170Z,65.20
2019-03-05T17:11:55.203Z,65.40
2019-03-05T17:14:25.054Z,65.60
2019-03-05T17:16:54.512Z,66.00
2019-03-05T17:19:23.844Z,66.30
2019-03-05T17:21:53.267Z,66.50
2019-03-05T17:24:22.648Z,66.70
2019-03-05T17:26:51.919Z,66.90
2019-03-05T17:29:21.269Z,67.20
2019-03-05T17:31:52.226Z,68.40
2019-03-05T17:34:21.609Z,67.80
2019-03-05T17:36:50.964Z,67.90
2019-03-05T17:39:20.525Z,68.10
2019-03-05T17:41:49.960Z,68.40
2019-03-05T17:44:19.360Z,68.60
2019-03-05T17:46:48.951Z,68.80
2019-03-05T17:49:18.286Z,68.80
2019-03-05T17:51:47.565Z,69.00
2019-03-05T17:54:16.844Z,69.30
2019-03-05T17:56:47.085Z,69.40
2019-03-05T17:59:16.356Z,69.60
2019-03-05T18:01:45.699Z,69.70
2019-03-05T18:04:15.048Z,69.80
2019-03-05T18:06:44.317Z,70.10
2019-03-05T18:09:13.941Z,70.30
2019-03-05T18:11:44.833Z,70.60
2019-03-05T18:14:14.118Z,70.70
2019-03-05T18:16:43.441Z,71.20
2019-03-05T18:19:12.782Z,71.50
2019-03-05T18:21:42.326Z,71.70
2019-03-05T18:24:11.597Z,71.80
2019-03-05T18:26:40.940Z,71.90
2019-03-05T18:29:11.281Z,72.00
2019-03-05T18:31:40.550Z,72.30
2019-03-05T18:34:09.893Z,72.50
2019-03-05T18:36:39.152Z,72.70
2019-03-05T18:39:09.064Z,72.80
2019-03-05T18:41:39.212Z,72.90
2019-03-05T18:44:08.488Z,73.10
2019-03-05T18:46:37.756Z,73.20
2019-03-05T18:49:09.207Z,73.50
2019-03-05T18:51:38.253Z,73.80
2019-03-05T18:54:07.591Z,74.00
2019-03-05T18:56:37.145Z,74.30
2019-03-05T18:59:06.433Z,74.40
2019-03-05T19:01:35.700Z,75.00
2019-03-05T19:04:04.963Z,75.20
2019-03-05T19:06:34.222Z,75.20
2019-03-05T19:09:04.761Z,75.60
2019-03-05T19:11:35.696Z,75.60
2019-03-05T19:14:05.044Z,75.70
2019-03-05T19:16:34.380Z,75.80
2019-03-05T19:19:03.728Z,76.00
2019-03-05T19:21:33.965Z,76.30
2019-03-05T19:24:03.238Z,76.30
2019-03-05T19:26:32.545Z,76.40
2019-03-05T19:29:01.822Z,76.50
2019-03-05T19:31:31.153Z,76.70
2019-03-05T19:34:00.438Z,76.70
2019-03-05T19:36:29.720Z,76.50
2019-03-05T19:38:58.996Z,77.00
2019-03-05T19:41:30.400Z,77.00
2019-03-05T19:43:59.876Z,77.10
2019-03-05T19:46:29.308Z,77.10
2019-03-05T19:48:58.584Z,77.20
2019-03-05T19:51:27.860Z,77.20
2019-03-05T19:53:57.124Z,77.30
2019-03-05T19:56:26.406Z,77.30
2019-03-05T19:58:55.673Z,77.50
2019-03-05T20:01:26.586Z,77.50
2019-03-05T20:03:55.865Z,77.50
2019-03-05T20:06:25.200Z,77.80
2019-03-05T20:08:54.468Z,78.70
2019-03-05T20:11:23.781Z,78.00
2019-03-05T20:13:53.057Z,78.10
2019-03-05T20:16:22.328Z,78.20
2019-03-05T20:18:51.782Z,78.30
2019-03-05T20:21:21.064Z,78.10
2019-03-05T20:23:50.370Z,78.20
2019-03-05T20:26:19.640Z,78.20
2019-03-05T20:28:48.943Z,78.20
2019-03-05T20:31:18.665Z,78.20
2019-03-05T20:33:48.122Z,78.20
2019-03-05T20:36:17.488Z,78.20
2019-03-05T20:38:47.035Z,78.30
2019-03-05T20:41:16.527Z,78.40
2019-03-05T20:43:46.514Z,78.50
2019-03-05T20:46:18.738Z,78.70
2019-03-05T20:48:48.222Z,78.90
2019-03-05T20:51:19.136Z,79.10
2019-03-05T20:53:48.450Z,79.20
2019-03-05T20:56:17.727Z,79.30
2019-03-05T20:58:46.987Z,79.60
2019-03-05T21:01:17.563Z,79.60
2019-03-05T21:03:48.197Z,79.80
2019-03-05T21:06:17.607Z,80.00
2019-03-05T21:08:46.879Z,80.10
2019-03-05T21:11:16.224Z,81.00
2019-03-05T21:13:45.598Z,80.50
2019-03-05T21:16:14.878Z,80.70
2019-03-05T21:18:44.225Z,80.80
2019-03-05T21:21:13.569Z,81.00
2019-03-05T21:23:43.816Z,81.10
2019-03-05T21:26:13.172Z,81.30
2019-03-05T21:28:42.448Z,81.50
2019-03-05T21:31:11.932Z,81.70
2019-03-05T21:33:41.208Z,81.80
2019-03-05T21:36:11.624Z,82.00
2019-03-05T21:38:40.939Z,82.10
2019-03-05T21:41:11.357Z,82.30
2019-03-05T21:43:40.653Z,82.40
2019-03-05T21:46:13.156Z,82.60
2019-03-05T21:48:43.488Z,82.80
2019-03-05T21:51:12.771Z,82.90
2019-03-05T21:53:42.383Z,83.20
2019-03-05T21:56:11.647Z,83.30
2019-03-05T21:58:40.930Z,83.40
2019-03-05T22:01:11.266Z,83.60
2019-03-05T22:03:40.528Z,83.70
2019-03-05T22:06:09.803Z,83.90
2019-03-05T22:08:39.072Z,83.90
2019-03-05T22:11:08.332Z,84.10
2019-03-05T22:13:38.687Z,84.20
2019-03-05T22:16:07.955Z,84.50
2019-03-05T22:18:37.223Z,84.70
2019-03-05T22:21:06.497Z,84.70
2019-03-05T22:23:35.772Z,84.90
2019-03-05T22:26:06.184Z,85.00
2019-03-05T22:28:35.913Z,85.20
2019-03-05T22:31:05.165Z,85.20
2019-03-05T22:33:34.447Z,85.40
2019-03-05T22:36:03.872Z,85.50
2019-03-05T22:38:33.202Z,85.70
2019-03-05T22:41:02.906Z,85.70
2019-03-05T22:43:32.293Z,85.70
2019-03-05T22:46:01.567Z,85.80
2019-03-05T22:48:30.838Z,86.00
2019-03-05T22:51:00.099Z,86.10
2019-03-05T22:53:29.549Z,86.90
2019-03-05T22:55:58.802Z,86.20
2019-03-05T22:58:28.085Z,86.30
2019-03-05T23:01:01.524Z,86.20
2019-03-05T23:03:33.204Z,86.30
2019-03-05T23:06:08.460Z,87.30
2019-03-05T23:08:38.997Z,86.40
2019-03-05T23:11:08.424Z,86.40
2019-03-05T23:13:37.828Z,86.50
2019-03-05T23:16:07.320Z,86.60
2019-03-05T23:18:36.668Z,86.80
2019-03-05T23:21:06.399Z,86.80
2019-03-05T23:23:35.672Z,86.70
2019-03-05T23:26:05.340Z,86.90
2019-03-05T23:28:36.753Z,86.80
2019-03-05T23:31:07.856Z,86.90
2019-03-05T23:33:37.149Z,87.40
2019-03-05T23:36:06.476Z,86.90
2019-03-05T23:38:35.817Z,87.00
2019-03-05T23:41:05.094Z,87.00
2019-03-05T23:43:34.424Z,87.20
2019-03-05T23:46:04.132Z,87.10
2019-03-05T23:48:33.400Z,87.20
2019-03-05T23:51:02.665Z,87.10
2019-03-05T23:53:32.895Z,87.10
2019-03-05T23:56:02.188Z,86.80
2019-03-05T23:58:31.450Z,87.20
